Time;durP1;ratioP1;P1;durP2;ratioP2;P2;SDS_P1;SDS_P2;PMS_P1;PMS_P2;Temp;Humidity;BMP_temperature;BMP_pressure;BME280_temperature;BME280_humidity;BME280_pressure;Samples;Min_cycle;Max_cycle;Signal;HPM_P1;HPM_P2
2022/01/20 00:03:35;;;;;;;11.65;5.75;;;;;;;-5.87;76.57;91342.53;5074681;28;20029;-63
2022/01/20 00:08:48;;;;;;;27.73;11.32;;;;;;;-5.81;77.57;91331.41;5074678;28;20046;-63
2022/01/20 00:27:49;;;;;;;11.32;6.13;;;;;;;-4.73;68.88;91315.28;5074305;28;20417;-63
2022/01/20 00:32:56;;;;;;;13.00;6.72;;;;;;;-4.72;68.91;91307.31;5074047;28;20455;-62
2022/01/20 00:37:14;;;;;;;21.77;10.20;;;;;;;-4.65;68.56;91318.44;5074320;28;20090;-63
2022/01/20 00:38:13;;;;;;;18.17;8.55;;;;;;;-4.76;68.88;91308.72;5073970;28;20032;-64
2022/01/20 00:40:39;;;;;;;12.27;6.28;;;;;;;-4.84;69.47;91316.75;5074063;28;20036;-64
2022/01/20 00:43:04;;;;;;;10.73;5.53;;;;;;;-5.04;70.58;91311.66;5074008;28;20033;-64
2022/01/20 00:45:31;;;;;;;15.05;4.95;;;;;;;-5.30;72.23;91306.56;5073967;28;20450;-64
2022/01/20 00:47:57;;;;;;;9.23;4.90;;;;;;;-5.41;72.87;91300.22;5073945;28;20063;-64
2022/01/20 00:50:24;;;;;;;10.80;5.57;;;;;;;-5.52;73.54;91287.91;5073890;28;20107;-64
2022/01/20 00:52:50;;;;;;;9.25;5.15;;;;;;;-5.41;73.02;91287.25;5073972;28;20036;-64
2022/01/20 00:55:16;;;;;;;12.63;6.90;;;;;;;-5.23;72.04;91283.97;5073737;28;20387;-64
2022/01/20 00:57:42;;;;;;;14.35;6.32;;;;;;;-5.00;71.20;91288.69;5073003;28;20040;-64
2022/01/20 01:00:10;;;;;;;12.13;5.47;;;;;;;-4.91;70.78;91283.03;5073570;28;20107;-64
2022/01/20 01:02:35;;;;;;;15.65;7.22;;;;;;;-4.77;70.09;91283.78;5072359;28;20399;-64
2022/01/20 01:05:02;;;;;;;9.18;5.38;;;;;;;-4.58;69.27;91285.44;5073397;28;20123;-64
2022/01/20 01:07:45;;;;;;;9.98;5.68;;;;;;;-4.41;68.53;91290.16;5073533;28;20460;-64
2022/01/20 01:10:28;;;;;;;11.90;5.32;;;;;;;-4.38;68.11;91282.75;5073767;28;20055;-63
2022/01/20 01:13:08;;;;;;;9.20;4.25;;;;;;;-4.38;67.56;91274.16;5073398;28;20036;-64
2022/01/20 01:15:41;;;;;;;5.43;3.40;;;;;;;-4.37;67.73;91267.97;5073390;28;20025;-64
2022/01/20 01:23:34;;;;;;;5.20;3.17;;;;;;;-4.46;68.01;91270.00;5073233;28;20028;-64
2022/01/20 01:26:02;;;;;;;5.18;3.85;;;;;;;-4.39;68.06;91270.75;5073144;28;20120;-64
2022/01/20 01:28:30;;;;;;;3.85;2.97;;;;;;;-4.36;68.17;91264.34;5073311;28;20029;-64
2022/01/20 01:33:51;;;;;;;7.22;3.58;;;;;;;-4.56;69.11;91265.28;5073186;28;20150;-64
2022/01/20 01:36:20;;;;;;;11.50;4.43;;;;;;;-4.69;70.27;91259.38;5073040;28;20048;-64
2022/01/20 01:38:47;;;;;;;6.88;3.90;;;;;;;-4.75;70.66;91261.00;5072926;28;20111;-64
2022/01/20 01:41:16;;;;;;;5.88;3.72;;;;;;;-4.75;71.83;91249.81;5072917;28;20027;-62
2022/01/20 01:43:45;;;;;;;9.20;3.80;;;;;;;-4.75;72.50;91252.41;5072783;28;20020;-64
2022/01/20 01:46:14;;;;;;;5.20;3.25;;;;;;;-4.70;73.19;91245.63;5073039;28;20028;-64
2022/01/20 01:48:41;;;;;;;9.40;4.30;;;;;;;-4.65;73.49;91243.19;5072789;28;20028;-64
2022/01/20 01:51:07;;;;;;;7.72;3.90;;;;;;;-4.60;73.87;91242.53;5072682;28;20025;-63
2022/01/20 01:53:33;;;;;;;9.25;2.85;;;;;;;-4.61;74.36;91239.16;5072525;28;20108;-63
2022/01/20 01:55:58;;;;;;;18.10;6.70;;;;;;;-4.67;74.57;91231.41;5072610;28;20473;-63
2022/01/20 01:58:24;;;;;;;9.65;4.60;;;;;;;-4.69;74.74;91231.63;5072596;28;20093;-63
2022/01/20 02:00:50;;;;;;;10.95;5.22;;;;;;;-4.69;74.81;91228.25;5072402;28;20036;-63
2022/01/20 02:03:15;;;;;;;5.38;3.17;;;;;;;-4.73;74.40;91238.25;5072376;28;20040;-63
2022/01/20 02:19:11;;;;;;;7.57;3.88;;;;;;;-4.40;70.79;91201.66;5072145;28;20422;-63
2022/01/20 02:21:46;;;;;;;8.43;3.60;;;;;;;-4.43;70.79;91212.44;5072311;28;20111;-63
2022/01/20 02:24:11;;;;;;;8.43;2.97;;;;;;;-4.45;70.46;91205.88;5071917;28;20509;-63
2022/01/20 02:26:37;;;;;;;7.65;3.50;;;;;;;-4.45;69.91;91204.09;5072050;28;20126;-63
2022/01/20 02:29:03;;;;;;;8.48;3.17;;;;;;;-4.41;69.39;91188.91;5071938;28;20490;-63
2022/01/20 02:31:28;;;;;;;10.25;4.13;;;;;;;-4.38;69.08;91199.66;5071909;28;20035;-64
2022/01/20 02:33:55;;;;;;;7.72;4.43;;;;;;;-4.48;69.31;91198.53;5071717;28;20409;-64
2022/01/20 02:36:20;;;;;;;5.80;3.40;;;;;;;-4.44;69.07;91197.88;5072072;28;20036;-64
2022/01/20 02:38:53;;;;;;;7.72;3.78;;;;;;;-4.33;68.60;91197.19;5071790;28;20098;-64
2022/01/20 02:46:48;;;;;;;5.55;3.70;;;;;;;-4.28;67.82;91175.78;5071842;28;20039;-64
2022/01/20 02:49:17;;;;;;;8.27;2.42;;;;;;;-4.17;66.64;91169.09;5071538;28;20021;-64
2022/01/20 02:51:52;;;;;;;5.80;2.65;;;;;;;-4.11;65.86;91170.81;5071568;28;20550;-64
2022/01/20 02:54:20;;;;;;;3.33;2.22;;;;;;;-3.95;64.56;91168.44;5071449;28;20414;-64
2022/01/20 02:56:46;;;;;;;5.72;3.10;;;;;;;-3.86;64.22;91168.19;5071490;28;20189;-64
2022/01/20 02:59:12;;;;;;;5.05;2.90;;;;;;;-3.89;64.26;91173.81;5071443;28;20043;-63
2022/01/20 03:01:38;;;;;;;6.97;3.17;;;;;;;-3.92;64.15;91162.84;5071378;28;20028;-64
2022/01/20 03:06:39;;;;;;;5.50;2.70;;;;;;;-3.87;63.81;91162.19;5067090;22;20480;-64
2022/01/20 03:09:05;;;;;;;5.68;2.67;;;;;;;-3.88;63.86;91157.22;5051239;28;20029;-64
2022/01/20 03:11:30;;;;;;;10.73;3.38;;;;;;;-3.86;64.24;91162.97;5050700;28;20055;-64
2022/01/20 03:13:56;;;;;;;5.57;2.95;;;;;;;-3.89;64.06;91158.22;5051070;28;20036;-64
2022/01/20 03:16:21;;;;;;;5.03;3.00;;;;;;;-3.87;64.13;91158.78;5050933;28;20104;-64
2022/01/20 03:18:47;;;;;;;8.77;3.00;;;;;;;-3.94;64.24;91153.69;5051091;28;20033;-64
2022/01/20 03:21:12;;;;;;;4.65;2.85;;;;;;;-3.86;63.73;91158.56;5050598;28;20032;-64
2022/01/20 03:23:38;;;;;;;4.82;3.00;;;;;;;-3.83;63.29;91155.53;5051062;28;20174;-64
2022/01/20 03:26:03;;;;;;;6.68;2.60;;;;;;;-3.83;63.10;91154.75;5050896;28;20056;-64
2022/01/20 03:28:29;;;;;;;6.53;3.05;;;;;;;-3.80;62.53;91154.31;5051446;28;20127;-64
2022/01/20 03:30:54;;;;;;;13.63;5.88;;;;;;;-3.82;62.30;91146.72;5051207;28;20122;-64
2022/01/20 03:33:20;;;;;;;5.25;3.20;;;;;;;-3.82;62.38;91145.94;5051436;28;20033;-64
2022/01/20 03:35:46;;;;;;;3.50;2.58;;;;;;;-3.84;62.47;91143.56;5050771;28;20476;-64
2022/01/20 03:38:11;;;;;;;7.70;2.90;;;;;;;-3.91;62.86;91140.25;5050977;28;20057;-65
2022/01/20 03:40:37;;;;;;;6.60;3.22;;;;;;;-3.92;62.91;91133.47;5050925;28;20033;-64
2022/01/20 03:43:03;;;;;;;8.07;3.25;;;;;;;-3.97;62.95;91134.09;5050839;28;20037;-63
2022/01/20 03:45:29;;;;;;;8.27;3.40;;;;;;;-3.88;62.52;91136.41;5049430;28;20035;-64
2022/01/20 03:48:05;;;;;;;5.95;3.10;;;;;;;-3.90;62.54;91138.44;5050811;28;20032;-64
2022/01/20 03:53:14;;;;;;;7.35;3.22;;;;;;;-4.09;63.55;91141.03;5051036;28;20052;-64
2022/01/20 03:55:40;;;;;;;5.80;3.47;;;;;;;-4.11;63.15;91148.22;5050602;28;20398;-64
2022/01/20 03:58:07;;;;;;;6.45;3.20;;;;;;;-4.12;63.18;91144.03;5050712;28;20068;-64
2022/01/20 04:00:32;;;;;;;5.07;3.40;;;;;;;-4.14;63.25;91146.06;5050595;28;20025;-64
2022/01/20 04:02:57;;;;;;;6.40;3.55;;;;;;;-4.11;63.32;91139.66;5050671;28;20047;-63
2022/01/20 04:05:23;;;;;;;5.32;3.20;;;;;;;-4.13;63.73;91152.06;5049104;28;20048;-64
2022/01/20 04:07:48;;;;;;;5.28;3.22;;;;;;;-4.22;63.53;91151.56;5050600;28;20033;-64
2022/01/20 04:10:14;;;;;;;3.80;2.80;;;;;;;-4.16;63.16;91152.50;5050463;28;20037;-64
2022/01/20 04:12:39;;;;;;;6.25;3.13;;;;;;;-3.99;62.28;91149.09;5050474;28;20413;-64
2022/01/20 04:15:08;;;;;;;6.40;3.15;;;;;;;-3.84;61.58;91153.16;5050480;28;20087;-64
2022/01/20 04:17:44;;;;;;;9.35;2.88;;;;;;;-3.81;61.94;91150.13;5050483;28;20436;-64
2022/01/20 04:20:10;;;;;;;4.15;2.70;;;;;;;-3.79;61.74;91156.69;5050464;28;20426;-64
2022/01/20 04:22:36;;;;;;;8.10;4.10;;;;;;;-3.78;61.86;91157.50;5050442;28;20104;-64
2022/01/20 04:25:02;;;;;;;9.57;3.80;;;;;;;-3.93;62.51;91153.47;5050428;28;20036;-64
2022/01/20 04:27:27;;;;;;;7.72;4.75;;;;;;;-4.04;62.75;91148.97;5050420;28;20017;-64
2022/01/20 04:29:53;;;;;;;44.85;18.17;;;;;;;-4.03;62.52;91152.38;5050373;28;20052;-64
2022/01/20 04:32:19;;;;;;;35.13;16.42;;;;;;;-4.00;62.64;91155.31;5050321;28;20395;-63
2022/01/20 04:34:44;;;;;;;17.85;8.70;;;;;;;-4.03;63.00;91147.97;5053186;28;20033;-64
2022/01/20 04:37:10;;;;;;;16.27;8.20;;;;;;;-3.94;62.72;91151.09;5054217;28;20029;-64
2022/01/20 04:39:43;;;;;;;6.47;4.43;;;;;;;-3.96;62.67;91148.66;5053876;28;20044;-64
2022/01/20 04:42:08;;;;;;;8.10;3.73;;;;;;;-4.00;63.01;91155.31;5053904;28;20021;-64
2022/01/20 04:58:01;;;;;;;4.32;2.75;;;;;;;-3.83;62.81;91132.16;4982308;28;20531;-64
2022/01/20 05:00:27;;;;;;;8.82;3.92;;;;;;;-3.94;63.75;91138.09;5053579;28;20033;-64
2022/01/20 05:02:53;;;;;;;8.48;4.45;;;;;;;-4.03;64.36;91137.56;5053512;28;20111;-64
2022/01/20 05:05:18;;;;;;;6.47;3.65;;;;;;;-4.07;64.82;91133.81;5053261;28;20506;-64
2022/01/20 05:07:44;;;;;;;5.00;3.40;;;;;;;-4.06;65.06;91139.81;5052092;28;20033;-64
2022/01/20 05:10:12;;;;;;;4.03;2.88;;;;;;;-4.10;65.23;91141.22;5053406;28;20363;-64
2022/01/20 05:15:20;;;;;;;18.38;7.75;;;;;;;-4.25;65.86;91136.41;5053123;28;20029;-64
2022/01/20 05:17:46;;;;;;;16.25;7.43;;;;;;;-4.30;66.15;91134.44;5053176;28;20123;-64
2022/01/20 05:20:12;;;;;;;11.43;6.20;;;;;;;-4.33;66.12;91123.69;5053115;28;20112;-64
2022/01/20 05:22:38;;;;;;;8.73;4.05;;;;;;;-4.38;66.56;91134.72;5053044;28;20064;-64
2022/01/20 05:25:04;;;;;;;9.55;4.10;;;;;;;-4.46;66.97;91132.41;5052679;28;20064;-64
2022/01/20 05:27:30;;;;;;;10.48;3.10;;;;;;;-4.54;67.24;91143.06;5053093;28;20056;-65
2022/01/20 05:29:56;;;;;;;7.70;3.85;;;;;;;-4.59;67.22;91122.91;5052935;28;20478;-65
2022/01/20 05:32:22;;;;;;;10.20;3.60;;;;;;;-4.53;66.98;91142.84;5053004;28;20108;-65
2022/01/20 05:34:48;;;;;;;9.82;3.85;;;;;;;-4.55;67.48;91142.28;5052761;28;20029;-65
2022/01/20 05:37:14;;;;;;;8.77;3.85;;;;;;;-4.57;67.40;91149.47;5052827;28;20128;-65
2022/01/20 05:39:40;;;;;;;10.55;3.78;;;;;;;-4.44;66.92;91153.75;5052800;28;20056;-65
2022/01/20 05:42:06;;;;;;;4.90;2.67;;;;;;;-4.31;65.53;91137.25;5052790;28;20485;-65
2022/01/20 05:44:31;;;;;;;18.63;4.13;;;;;;;-4.29;65.21;91145.63;5052278;28;20032;-65
2022/01/20 05:46:57;;;;;;;7.45;3.83;;;;;;;-4.36;65.18;91134.50;5051308;28;20029;-65
2022/01/20 05:49:22;;;;;;;6.53;3.17;;;;;;;-4.39;64.72;91133.16;5052690;28;20115;-64
2022/01/20 05:51:52;;;;;;;13.57;3.80;;;;;;;-4.18;63.71;91141.53;5052573;28;20056;-65
2022/01/20 05:54:19;;;;;;;8.20;3.00;;;;;;;-3.99;61.89;91138.72;5052270;28;20024;-65
2022/01/20 05:56:44;;;;;;;9.32;3.00;;;;;;;-3.54;60.20;91138.41;5052500;28;20039;-65
2022/01/20 05:59:10;;;;;;;16.52;6.72;;;;;;;-3.45;59.98;91136.31;5052437;28;20070;-65
2022/01/20 06:01:37;;;;;;;11.50;5.35;;;;;;;-3.40;59.18;91132.03;5052395;28;20029;-65
2022/01/20 06:04:06;;;;;;;36.13;15.00;;;;;;;-3.43;59.61;91127.28;5052292;28;20029;-65
2022/01/20 06:06:31;;;;;;;22.30;11.20;;;;;;;-3.45;60.34;91131.91;5052085;28;20049;-65
2022/01/20 06:08:57;;;;;;;14.57;6.45;;;;;;;-3.45;60.20;91129.31;5051044;28;20043;-66
2022/01/20 06:11:23;;;;;;;14.10;8.23;;;;;;;-3.48;60.51;91132.31;5051950;28;20041;-66
2022/01/20 06:13:49;;;;;;;26.95;10.25;;;;;;;-3.42;60.42;91131.47;5052288;28;20069;-66
2022/01/20 06:16:15;;;;;;;28.23;13.65;;;;;;;-3.36;60.09;91130.56;5052136;28;20068;-64
2022/01/20 06:18:40;;;;;;;23.88;10.25;;;;;;;-3.33;59.84;91126.72;5052069;28;20029;-65
2022/01/20 06:21:06;;;;;;;21.33;8.73;;;;;;;-3.30;59.78;91130.72;5052154;28;20542;-66
2022/01/20 06:23:33;;;;;;;63.13;21.73;;;;;;;-3.28;59.97;91128.69;5051971;28;20543;-64
2022/01/20 06:26:04;;;;;;;61.03;18.60;;;;;;;-3.21;59.84;91126.78;5051935;28;20040;-65
2022/01/20 06:28:34;;;;;;;27.55;11.98;;;;;;;-3.24;59.88;91124.63;5051701;28;20018;-65
2022/01/20 06:31:00;;;;;;;60.97;21.83;;;;;;;-3.34;60.04;91115.53;5051723;28;20041;-65
2022/01/20 06:33:26;;;;;;;48.70;16.35;;;;;;;-3.37;61.10;91113.38;5051878;28;20403;-64
2022/01/20 06:35:51;;;;;;;12.38;5.78;;;;;;;-3.10;60.05;91133.84;5051641;28;20025;-64
2022/01/20 06:38:18;;;;;;;18.90;8.50;;;;;;;-2.97;59.33;91132.84;5051658;28;20036;-64
2022/01/20 06:40:44;;;;;;;15.82;7.35;;;;;;;-2.85;59.52;91136.25;5051630;28;20029;-64
2022/01/20 06:43:09;;;;;;;19.95;9.43;;;;;;;-2.69;60.04;91127.81;5051599;28;20039;-65
2022/01/20 06:45:35;;;;;;;17.13;8.65;;;;;;;-2.36;58.63;91122.09;5051566;28;20055;-65
2022/01/20 06:48:00;;;;;;;14.27;6.70;;;;;;;-2.60;58.93;91126.47;5051424;28;20025;-65
2022/01/20 06:50:26;;;;;;;27.08;13.00;;;;;;;-2.60;59.79;91123.06;5051432;28;20032;-64
2022/01/20 06:52:52;;;;;;;27.15;13.50;;;;;;;-2.66;59.69;91116.16;5051657;28;20036;-64
2022/01/20 06:55:18;;;;;;;14.38;6.70;;;;;;;-2.63;59.44;91119.09;5050543;28;20496;-65
2022/01/20 06:57:44;;;;;;;16.02;7.05;;;;;;;-2.48;59.24;91110.84;5051106;28;20031;-64
2022/01/20 07:00:14;;;;;;;17.88;7.25;;;;;;;-2.48;59.79;91105.66;5036368;28;20116;-65
2022/01/20 07:02:40;;;;;;;15.27;6.50;;;;;;;-2.27;59.32;91112.09;5031177;28;20029;-64
2022/01/20 07:05:07;;;;;;;24.92;9.05;;;;;;;-1.93;59.94;91118.31;5030932;28;20077;-65
2022/01/20 07:07:32;;;;;;;20.83;8.85;;;;;;;0.92;54.53;91123.63;5031089;28;20036;-65
2022/01/20 07:09:58;;;;;;;11.13;5.50;;;;;;;4.69;46.85;91113.59;5030823;28;20041;-65
2022/01/20 07:12:24;;;;;;;8.98;5.00;;;;;;;6.62;41.42;91114.25;5031090;28;20029;-65
2022/01/20 07:14:50;;;;;;;16.85;6.38;;;;;;;6.24;41.17;91103.50;5046153;28;20025;-66
2022/01/20 07:17:16;;;;;;;14.98;6.70;;;;;;;6.83;40.35;91112.97;5027628;28;20049;-65
2022/01/20 07:19:42;;;;;;;15.85;6.65;;;;;;;6.90;39.47;91116.06;5030892;28;20031;-65
2022/01/20 07:22:08;;;;;;;11.02;5.55;;;;;;;6.04;39.91;91106.31;5045807;28;20068;-65
2022/01/20 07:24:33;;;;;;;13.77;6.40;;;;;;;8.09;38.06;91104.47;5050092;28;20029;-65
2022/01/20 07:26:59;;;;;;;12.00;5.20;;;;;;;9.60;36.22;91095.91;5050723;28;20044;-66
2022/01/20 07:29:26;;;;;;;9.85;6.47;;;;;;;10.20;34.88;91090.31;5050738;28;20041;-65
2022/01/20 07:31:53;;;;;;;30.90;15.68;;;;;;;11.29;33.52;91093.44;5050718;28;20021;-65
2022/01/20 07:34:18;;;;;;;24.75;9.52;;;;;;;10.79;32.23;91073.19;5050435;28;20450;-66
2022/01/20 07:36:44;;;;;;;21.25;8.35;;;;;;;9.05;34.47;91079.25;5050677;28;20121;-65
2022/01/20 07:39:09;;;;;;;30.85;16.83;;;;;;;10.64;33.23;91080.78;5050204;28;20116;-64
2022/01/20 07:41:35;;;;;;;44.15;18.80;;;;;;;10.11;32.97;91074.31;5049751;28;20029;-65
2022/01/20 07:44:00;;;;;;;35.50;14.82;;;;;;;10.61;32.87;91081.41;5050343;28;20430;-64
2022/01/20 07:46:26;;;;;;;9.57;7.07;;;;;;;11.34;31.57;91090.63;5050604;28;20021;-64
2022/01/20 07:48:51;;;;;;;9.07;5.80;;;;;;;11.60;31.16;91083.50;5050482;28;20041;-64
2022/01/20 07:51:17;;;;;;;9.93;5.25;;;;;;;12.07;31.13;91090.97;5050575;28;20024;-64
2022/01/20 07:53:43;;;;;;;18.80;7.70;;;;;;;11.11;31.06;91084.63;5050120;28;20112;-64
2022/01/20 07:56:09;;;;;;;20.08;8.98;;;;;;;10.61;31.91;91078.75;5050524;28;20162;-64
2022/01/20 07:58:35;;;;;;;10.70;6.63;;;;;;;7.69;35.20;91086.50;5050648;28;20072;-64
2022/01/20 08:01:00;;;;;;;67.38;11.27;;;;;;;7.97;35.06;91079.47;5049158;28;20403;-65
2022/01/20 08:03:26;;;;;;;31.13;13.18;;;;;;;11.01;31.40;91071.56;5050462;28;20036;-66
2022/01/20 08:05:52;;;;;;;6.40;3.67;;;;;;;13.12;29.06;91069.94;5050170;28;20064;-67
2022/01/20 08:08:18;;;;;;;18.42;5.80;;;;;;;11.88;29.22;91084.06;5052975;28;20418;-66
2022/01/20 08:10:43;;;;;;;27.73;11.00;;;;;;;11.05;30.30;91085.84;5051602;28;20751;-65
2022/01/20 08:13:09;;;;;;;11.57;4.97;;;;;;;10.37;30.46;91063.88;5053879;28;20093;-66
2022/01/20 08:15:35;;;;;;;87.15;11.98;;;;;;;10.59;30.94;91072.94;5053160;28;20041;-65
2022/01/20 08:18:00;;;;;;;11.98;6.13;;;;;;;10.42;30.08;91078.94;5053927;28;20044;-65
2022/01/20 08:20:26;;;;;;;11.88;3.92;;;;;;;11.12;29.86;91080.84;5053799;28;20037;-65
2022/01/20 08:22:52;;;;;;;13.57;8.40;;;;;;;10.08;30.73;91082.09;5054009;28;20120;-63
2022/01/20 08:25:19;;;;;;;19.88;7.10;;;;;;;10.52;29.84;91061.94;5053432;28;20028;-65
2022/01/20 08:27:47;;;;;;;38.58;9.98;;;;;;;11.02;30.23;91078.47;5054017;28;20047;-62
2022/01/20 08:30:16;;;;;;;6.75;3.90;;;;;;;12.34;28.77;91079.22;5053831;28;20044;-62
2022/01/20 08:32:44;;;;;;;30.02;10.27;;;;;;;11.52;29.23;91070.97;5053849;28;20044;-63
2022/01/20 08:35:11;;;;;;;25.70;15.07;;;;;;;11.22;29.23;91082.47;5053710;28;20095;-62
2022/01/20 08:37:40;;;;;;;26.55;6.28;;;;;;;12.51;28.75;91081.88;5053753;28;20041;-64
2022/01/20 08:40:14;;;;;;;22.13;10.30;;;;;;;12.40;28.13;91077.94;5053295;28;20070;-63
2022/01/20 08:42:45;;;;;;;10.45;6.50;;;;;;;11.81;28.40;91082.94;5053830;28;20401;-62
2022/01/20 08:45:13;;;;;;;25.60;9.63;;;;;;;10.02;30.01;91083.31;5053523;28;20033;-65
2022/01/20 08:47:39;;;;;;;24.02;7.72;;;;;;;10.26;30.12;91094.47;5053824;28;20029;-62
2022/01/20 08:50:06;;;;;;;13.95;6.38;;;;;;;10.41;30.41;91086.13;5053724;28;20506;-63
2022/01/20 08:52:32;;;;;;;10.18;4.55;;;;;;;10.01;30.72;91082.50;5052839;28;20032;-63
2022/01/20 08:54:58;;;;;;;8.15;4.10;;;;;;;10.11;30.73;91076.19;5053439;28;20120;-64
2022/01/20 08:57:25;;;;;;;8.65;3.67;;;;;;;10.82;30.55;91082.44;5043877;28;20434;-64
2022/01/20 08:59:51;;;;;;;9.95;5.18;;;;;;;10.58;30.63;91074.81;5042702;28;20036;-64
2022/01/20 09:02:17;;;;;;;16.08;4.65;;;;;;;10.40;31.28;91073.13;5042280;28;20037;-65
2022/01/20 09:04:42;;;;;;;11.80;4.53;;;;;;;10.39;31.12;91076.88;5043567;28;20069;-64
2022/01/20 09:07:08;;;;;;;14.05;4.90;;;;;;;10.02;30.55;91078.78;5047767;28;20076;-64
2022/01/20 09:09:40;;;;;;;24.42;6.97;;;;;;;9.72;30.63;91096.19;5053726;28;20045;-64
2022/01/20 09:17:30;;;;;;;21.05;13.70;;;;;;;10.96;30.82;91104.44;5033278;28;20048;-64
2022/01/20 09:19:57;;;;;;;11.07;7.40;;;;;;;11.45;30.59;91097.25;5032580;28;20105;-64
2022/01/20 09:22:23;;;;;;;11.32;6.68;;;;;;;11.51;29.49;91108.53;5031881;28;20103;-64
2022/01/20 09:24:49;;;;;;;8.75;5.43;;;;;;;11.40;29.89;91108.84;5032993;28;20037;-63
2022/01/20 09:27:15;;;;;;;15.02;5.57;;;;;;;12.28;28.87;91116.69;5033165;28;20061;-63
2022/01/20 09:29:41;;;;;;;15.00;3.88;;;;;;;12.53;28.74;91104.47;5047780;28;20076;-63
2022/01/20 09:32:10;;;;;;;27.30;5.20;;;;;;;13.15;28.17;91092.56;5052869;28;20466;-64
2022/01/20 09:34:36;;;;;;;9.52;4.82;;;;;;;13.45;27.85;91091.53;5053048;28;20041;-61
2022/01/20 09:37:02;;;;;;;20.90;6.10;;;;;;;12.86;29.48;91086.03;5053006;28;20269;-66
2022/01/20 09:39:28;;;;;;;20.95;9.15;;;;;;;12.51;29.29;91093.31;5039627;28;20041;-62
2022/01/20 09:41:54;;;;;;;18.27;7.57;;;;;;;13.45;27.94;91072.81;5046150;28;20036;-64
2022/01/20 09:44:19;;;;;;;20.00;6.15;;;;;;;12.25;29.35;91084.53;5036287;28;20045;-64
2022/01/20 09:46:46;;;;;;;24.83;5.07;;;;;;;12.50;29.35;91080.31;5032013;28;20414;-64
2022/01/20 09:49:12;;;;;;;10.13;4.38;;;;;;;13.48;29.38;91071.38;5032242;28;20130;-64
2022/01/20 09:51:39;;;;;;;11.00;4.05;;;;;;;12.50;29.85;91066.97;5033087;28;20024;-64
2022/01/20 09:54:06;;;;;;;7.13;3.47;;;;;;;13.66;27.35;91054.16;5051231;28;20048;-64
2022/01/20 09:56:32;;;;;;;18.08;4.65;;;;;;;13.57;28.13;91050.75;5050463;28;20029;-65
2022/01/20 09:58:58;;;;;;;8.25;5.43;;;;;;;13.56;27.63;91040.34;5050629;28;20045;-62
2022/01/20 10:01:44;;;;;;;17.65;6.63;;;;;;;12.68;28.69;91038.34;5051099;28;20033;-62
2022/01/20 10:04:22;;;;;;;24.40;6.32;;;;;;;13.23;27.58;91049.00;5051412;28;20477;-62
2022/01/20 10:06:57;;;;;;;7.63;4.38;;;;;;;12.71;27.98;91046.50;5051019;28;20044;-62
2022/01/20 10:09:35;;;;;;;11.27;4.72;;;;;;;12.69;27.40;91038.03;5051414;28;20102;-62
2022/01/20 10:12:01;;;;;;;30.75;6.80;;;;;;;12.26;28.28;91030.88;5051270;28;20479;-64
2022/01/20 10:14:44;;;;;;;35.45;10.57;;;;;;;12.33;27.52;91019.75;5050852;28;20029;-66
2022/01/20 10:17:36;;;;;;;18.83;7.70;;;;;;;12.70;28.39;91014.78;5049759;28;20033;-62
2022/01/20 10:20:06;;;;;;;10.10;5.93;;;;;;;12.69;28.19;91011.34;5050728;28;20045;-63
2022/01/20 10:22:35;;;;;;;6.10;3.33;;;;;;;13.64;26.67;90996.78;5050816;28;20490;-64
2022/01/20 10:25:05;;;;;;;19.77;10.65;;;;;;;12.93;29.01;90996.63;5051129;28;20078;-63
2022/01/20 10:27:34;;;;;;;38.35;17.40;;;;;;;12.90;28.11;90996.19;5051086;28;20111;-64
2022/01/20 10:30:08;;;;;;;31.50;11.35;;;;;;;12.64;27.82;90992.84;5050429;28;20039;-64
2022/01/20 10:32:46;;;;;;;16.25;7.85;;;;;;;11.54;28.09;90994.19;5049838;28;20052;-64
2022/01/20 10:35:15;;;;;;;40.40;19.60;;;;;;;13.47;27.25;90982.41;5051183;28;20060;-64
2022/01/20 10:38:02;;;;;;;18.85;8.45;;;;;;;12.48;27.24;90978.44;5050622;28;20117;-64
2022/01/20 10:40:28;;;;;;;17.17;9.18;;;;;;;12.64;26.88;90976.81;5050232;28;20036;-66
2022/01/20 10:42:54;;;;;;;8.75;3.38;;;;;;;12.40;26.77;90969.34;5051069;28;20021;-63
2022/01/20 10:45:29;;;;;;;9.27;3.17;;;;;;;12.06;27.19;90966.75;5049739;28;20039;-67
2022/01/20 10:47:58;;;;;;;8.75;2.60;;;;;;;12.29;26.41;90966.22;5050859;28;20033;-66
2022/01/20 10:50:30;;;;;;;15.30;3.53;;;;;;;10.72;26.82;90973.59;5050775;28;20029;-64
2022/01/20 10:52:56;;;;;;;13.00;6.15;;;;;;;10.40;29.07;90942.81;5056776;28;20103;-64
2022/01/20 10:55:30;;;;;;;22.20;6.45;;;;;;;10.49;30.17;90948.97;5050682;28;20108;-63
2022/01/20 10:58:08;;;;;;;15.32;6.82;;;;;;;10.63;29.59;90944.31;5050159;28;20083;-69
2022/01/20 11:00:41;;;;;;;19.02;12.00;;;;;;;10.92;28.55;90938.47;5049133;28;20025;-64
2022/01/20 11:03:07;;;;;;;13.55;4.50;;;;;;;10.42;29.45;90928.13;5050730;28;20029;-64
2022/01/20 11:05:33;;;;;;;12.63;5.57;;;;;;;10.05;29.52;90939.16;5049771;28;20079;-64
2022/01/20 11:08:00;;;;;;;11.55;3.80;;;;;;;9.59;30.32;90937.63;5050293;28;20017;-66
2022/01/20 11:10:25;;;;;;;37.25;8.50;;;;;;;8.84;30.45;90951.53;5050381;28;20082;-65
2022/01/20 11:12:51;;;;;;;14.98;8.43;;;;;;;9.23;30.70;90942.97;5049616;28;20033;-67
2022/01/20 11:15:19;;;;;;;22.38;9.85;;;;;;;9.43;31.48;90955.00;5049965;28;20036;-66
2022/01/20 11:17:51;;;;;;;13.75;7.63;;;;;;;9.23;31.54;90941.09;5050856;28;20489;-66
2022/01/20 11:20:21;;;;;;;12.43;6.70;;;;;;;9.36;31.48;90942.16;5049928;28;20025;-66
2022/01/20 11:22:56;;;;;;;16.95;6.82;;;;;;;9.03;31.48;90936.25;5049893;28;20114;-63
2022/01/20 11:25:23;;;;;;;13.73;6.65;;;;;;;8.21;33.16;90931.00;5049675;28;20490;-63
2022/01/20 11:28:00;;;;;;;9.65;3.90;;;;;;;7.97;32.82;90936.44;5049808;28;20036;-66
2022/01/20 11:30:26;;;;;;;12.27;4.88;;;;;;;8.19;33.38;90941.84;5040612;28;20557;-63
2022/01/20 11:33:00;;;;;;;9.63;5.47;;;;;;;7.11;34.36;90931.47;5039045;28;20017;-66
2022/01/20 11:35:46;;;;;;;12.52;4.53;;;;;;;7.12;35.26;90934.91;5038517;28;20520;-64
2022/01/20 11:38:18;;;;;;;7.20;4.07;;;;;;;7.64;35.38;90936.47;5040010;28;20025;-63
2022/01/20 11:41:00;;;;;;;24.60;5.18;;;;;;;7.66;35.58;90921.06;5038993;28;20021;-63
2022/01/20 11:43:43;;;;;;;17.27;6.03;;;;;;;7.82;36.50;90930.31;5041143;28;20418;-64
2022/01/20 11:46:13;;;;;;;8.30;4.18;;;;;;;7.68;35.77;90924.22;5048125;28;20410;-64
2022/01/20 11:48:59;;;;;;;20.55;12.88;;;;;;;8.30;35.88;90939.81;5054505;28;20036;-65
2022/01/20 11:51:53;;;;;;;16.33;8.80;;;;;;;8.26;35.28;90941.47;5034055;28;20101;-62
2022/01/20 11:54:34;;;;;;;7.05;4.90;;;;;;;8.18;35.42;90931.56;5026161;28;20041;-63
2022/01/20 11:57:15;;;;;;;10.75;5.30;;;;;;;7.63;35.34;90923.53;5047836;28;20029;-63
2022/01/20 11:59:47;;;;;;;9.52;4.05;;;;;;;7.79;34.73;90928.28;5053451;28;20037;-63
2022/01/20 12:02:32;;;;;;;30.35;8.52;;;;;;;8.06;34.29;90930.19;5054288;28;20036;-63
2022/01/20 12:04:59;;;;;;;13.63;5.07;;;;;;;9.58;32.75;90909.50;5053272;28;20165;-65
2022/01/20 12:07:33;;;;;;;7.43;4.45;;;;;;;8.98;33.73;90901.84;5054105;28;20514;-66
2022/01/20 12:10:16;;;;;;;9.38;5.45;;;;;;;9.45;34.07;90900.50;5053992;28;20037;-64
2022/01/20 12:12:43;;;;;;;10.93;5.03;;;;;;;9.27;34.43;90904.91;5053406;28;20029;-64
2022/01/20 12:15:14;;;;;;;9.48;4.80;;;;;;;9.46;33.10;90907.38;5053536;28;20033;-63
2022/01/20 12:17:48;;;;;;;10.40;5.63;;;;;;;9.59;33.27;90903.88;5054208;28;20025;-63
2022/01/20 12:20:14;;;;;;;11.52;4.70;;;;;;;9.31;33.97;90905.13;5041185;28;20461;-63
2022/01/20 12:22:43;;;;;;;10.85;5.20;;;;;;;9.34;33.02;90911.69;5048870;28;20037;-63
2022/01/20 12:25:15;;;;;;;10.65;5.70;;;;;;;8.63;34.02;90922.75;5053676;28;20037;-63
2022/01/20 12:27:42;;;;;;;16.20;5.03;;;;;;;9.84;33.47;90918.44;5053348;28;20029;-63
2022/01/20 12:30:23;;;;;;;5.57;3.17;;;;;;;9.72;33.57;90920.84;5053307;28;20044;-63
2022/01/20 12:32:59;;;;;;;9.70;4.35;;;;;;;9.66;33.40;90924.72;5049901;28;20025;-65
2022/01/20 12:35:43;;;;;;;6.75;3.72;;;;;;;9.77;32.83;90934.00;5045905;28;20064;-64
2022/01/20 12:38:27;;;;;;;9.52;6.32;;;;;;;9.13;34.06;90943.97;5043792;28;20410;-63
2022/01/20 12:41:05;;;;;;;11.20;5.50;;;;;;;9.43;33.51;90926.56;5038774;28;20029;-63
2022/01/20 12:43:53;;;;;;;13.18;6.10;;;;;;;9.85;33.33;90935.94;5032917;28;20144;-63
2022/01/20 12:46:27;;;;;;;11.32;6.43;;;;;;;9.94;33.39;90925.38;5033012;28;20079;-64
2022/01/20 12:49:12;;;;;;;15.43;5.18;;;;;;;10.76;32.38;90929.34;5032952;28;20033;-64
2022/01/20 12:51:53;;;;;;;10.88;6.82;;;;;;;10.11;33.11;90932.66;5043587;28;20036;-65
2022/01/20 12:54:32;;;;;;;10.40;6.05;;;;;;;11.03;32.31;90931.72;5041380;28;20035;-66